createdAt,value
2019-05-09T00:00:45.173Z,92.35
2019-05-09T00:04:53.269Z,92.26
2019-05-09T00:09:13.847Z,92.58
2019-05-09T00:13:20.902Z,93.36
2019-05-09T00:17:27.706Z,92.76
2019-05-09T00:21:40.002Z,92.62
2019-05-09T00:25:46.718Z,92.09
2019-05-09T00:29:54.208Z,91.31
2019-05-09T00:34:04.756Z,91.49
2019-05-09T00:38:13.266Z,90.99
2019-05-09T00:42:20.060Z,90.87
2019-05-09T00:46:49.602Z,90.65
2019-05-09T00:50:56.337Z,90.97
2019-05-09T00:55:03.891Z,90.44
2019-05-09T00:59:13.343Z,90.53
2019-05-09T01:03:19.452Z,90.55
2019-05-09T01:07:26.202Z,90.25
2019-05-09T01:11:33.353Z,90.86
2019-05-09T01:15:40.272Z,91.45
2019-05-09T01:19:47.007Z,92.14
2019-05-09T01:23:54.226Z,92.91
2019-05-09T01:28:03.129Z,91.91
2019-05-09T01:32:16.445Z,91.72
2019-05-09T01:36:23.538Z,92.48
2019-05-09T01:40:30.366Z,92.17
2019-05-09T01:44:37.418Z,92.68
2019-05-09T01:48:43.609Z,92.03
2019-05-09T01:52:50.308Z,92.31
2019-05-09T01:56:57.043Z,91.70
2019-05-09T02:01:06.323Z,91.95
2019-05-09T02:05:13.664Z,91.85
2019-05-09T02:09:23.268Z,91.92
2019-05-09T02:13:29.339Z,91.50
2019-05-09T02:17:55.777Z,90.94
2019-05-09T02:21:53.124Z,89.99
2019-05-09T02:26:01.175Z,89.49
2019-05-09T02:30:09.234Z,88.17
2019-05-09T02:34:15.912Z,88.36
2019-05-09T02:38:22.605Z,87.89
2019-05-09T02:42:29.471Z,87.74
2019-05-09T02:46:49.258Z,87.50
2019-05-09T02:50:56.102Z,88.53
2019-05-09T02:55:02.762Z,88.22
2019-05-09T02:59:18.973Z,88.45
2019-05-09T03:03:30.635Z,88.19
2019-05-09T03:07:52.620Z,88.31
2019-05-09T03:12:20.492Z,88.51
2019-05-09T03:16:12.796Z,88.31
2019-05-09T03:20:28.941Z,88.65
2019-05-09T03:24:34.894Z,88.48
2019-05-09T03:28:59.380Z,88.39
2019-05-09T03:33:09.958Z,88.02
2019-05-09T03:37:17.632Z,88.00
2019-05-09T03:41:24.639Z,88.27
2019-05-09T03:45:32.902Z,88.75
2019-05-09T03:49:39.626Z,89.25
2019-05-09T03:53:48.415Z,88.55
2019-05-09T03:58:00.726Z,88.81
2019-05-09T04:02:09.824Z,88.56
2019-05-09T04:06:18.287Z,87.93
2019-05-09T04:10:24.330Z,88.15
2019-05-09T04:14:33.233Z,87.49
2019-05-09T04:18:40.444Z,87.74
2019-05-09T04:22:49.030Z,88.05
2019-05-09T04:27:09.570Z,87.32
2019-05-09T04:31:17.769Z,86.88
2019-05-09T04:35:24.706Z,86.23
2019-05-09T04:39:31.378Z,85.59
2019-05-09T04:43:39.879Z,85.11
2019-05-09T04:47:47.198Z,84.86
2019-05-09T04:51:54.105Z,84.67
2019-05-09T04:56:07.258Z,84.45
2019-05-09T05:00:18.402Z,83.71
2019-05-09T05:04:28.257Z,83.37
2019-05-09T05:08:37.417Z,83.77
2019-05-09T05:12:43.578Z,83.38
2019-05-09T05:16:54.034Z,83.95
2019-05-09T05:21:02.460Z,82.71
2019-05-09T05:25:09.464Z,82.26
2019-05-09T05:29:17.725Z,84.75
2019-05-09T05:33:53.631Z,82.43
2019-05-09T05:37:58.259Z,82.34
2019-05-09T05:42:05.054Z,84.35
2019-05-09T05:46:37.917Z,81.45
2019-05-09T05:50:44.862Z,81.78
2019-05-09T05:54:51.573Z,81.82
2019-05-09T05:58:58.306Z,80.87
2019-05-09T06:03:05.317Z,81.06
2019-05-09T06:07:12.218Z,79.39
2019-05-09T06:11:19.438Z,79.62
2019-05-09T06:15:28.828Z,79.27
2019-05-09T06:19:37.923Z,77.47
2019-05-09T06:23:44.343Z,76.87
2019-05-09T06:27:54.693Z,76.37
2019-05-09T06:32:01.498Z,76.52
2019-05-09T06:36:08.725Z,75.81
2019-05-09T06:40:22.309Z,75.08
2019-05-09T06:44:38.739Z,74.34
2019-05-09T06:48:47.831Z,74.13
2019-05-09T06:52:54.025Z,74.14
2019-05-09T06:57:00.862Z,73.88
2019-05-09T07:01:29.570Z,73.60
2019-05-09T07:05:57.476Z,73.18
2019-05-09T07:10:07.451Z,72.28
2019-05-09T07:14:38.257Z,72.90
2019-05-09T07:18:42.942Z,73.84
2019-05-09T07:22:52.886Z,74.57
2019-05-09T07:26:59.790Z,75.69
2019-05-09T07:31:25.505Z,75.60
2019-05-09T07:35:32.857Z,76.26
2019-05-09T07:39:39.649Z,75.87
2019-05-09T07:43:47.769Z,75.27
2019-05-09T07:47:54.877Z,75.73
2019-05-09T07:52:06.599Z,74.81
2019-05-09T07:56:10.788Z,74.77
2019-05-09T08:00:34.049Z,76.34
2019-05-09T08:04:40.796Z,77.48
2019-05-09T08:08:48.016Z,78.65
2019-05-09T08:12:54.800Z,79.08
2019-05-09T08:17:01.797Z,79.22
2019-05-09T08:21:08.663Z,81.00
2019-05-09T08:25:18.196Z,80.73
2019-05-09T08:29:24.304Z,78.86
2019-05-09T08:33:31.017Z,78.08
2019-05-09T08:37:39.021Z,78.78
2019-05-09T08:41:48.441Z,78.41
2019-05-09T08:45:54.334Z,80.54
2019-05-09T08:50:17.679Z,81.05
2019-05-09T08:54:41.829Z,83.02
2019-05-09T08:58:48.744Z,83.38
2019-05-09T09:02:57.382Z,81.75
2019-05-09T09:07:04.541Z,81.72
2019-05-09T09:11:11.217Z,81.55
2019-05-09T09:15:19.043Z,81.89
2019-05-09T09:19:27.892Z,81.91
2019-05-09T09:23:44.194Z,84.87
2019-05-09T09:27:47.713Z,83.86
2019-05-09T09:31:52.997Z,85.67
2019-05-09T09:35:59.697Z,83.79
2019-05-09T09:40:08.612Z,83.68
2019-05-09T09:44:17.840Z,85.17
2019-05-09T09:48:24.016Z,83.40
2019-05-09T09:52:34.110Z,81.72
2019-05-09T09:56:39.154Z,82.96
2019-05-09T10:01:09.219Z,83.35
2019-05-09T10:05:18.405Z,82.46
2019-05-09T10:09:24.447Z,81.26
2019-05-09T10:13:31.195Z,82.67
2019-05-09T10:17:47.574Z,80.98
2019-05-09T10:21:57.777Z,79.79
2019-05-09T10:26:04.843Z,80.89
2019-05-09T10:30:13.162Z,80.61
2019-05-09T10:34:19.877Z,79.77
2019-05-09T10:38:27.993Z,81.53
2019-05-09T10:42:54.059Z,82.98
2019-05-09T10:47:15.924Z,82.36
2019-05-09T10:51:22.868Z,84.48
2019-05-09T10:55:29.703Z,83.56
2019-05-09T10:59:37.651Z,82.48
2019-05-09T11:03:48.314Z,83.77
2019-05-09T11:07:55.493Z,84.25
2019-05-09T11:12:02.247Z,82.95
2019-05-09T11:16:09.098Z,84.66
2019-05-09T11:20:19.162Z,84.33
2019-05-09T11:24:40.588Z,83.62
2019-05-09T11:28:32.797Z,83.77
2019-05-09T11:32:39.594Z,84.30
2019-05-09T11:36:46.278Z,83.73
2019-05-09T11:40:54.962Z,83.96
2019-05-09T11:45:01.424Z,83.04
2019-05-09T11:49:08.742Z,84.55
2019-05-09T11:53:17.641Z,84.81
2019-05-09T11:57:27.573Z,84.84
2019-05-09T12:01:32.945Z,85.62
2019-05-09T12:05:39.688Z,87.02
2019-05-09T12:09:48.667Z,86.15
2019-05-09T12:13:54.884Z,86.11
2019-05-09T12:18:07.489Z,85.78
2019-05-09T12:22:10.605Z,87.10
2019-05-09T12:26:17.943Z,87.04
2019-05-09T12:30:25.016Z,87.53
2019-05-09T12:34:32.060Z,87.25
2019-05-09T12:38:38.994Z,87.08
2019-05-09T12:42:45.682Z,88.60
2019-05-09T12:46:52.415Z,87.40
2019-05-09T12:50:59.303Z,88.70
2019-05-09T12:55:08.201Z,90.07
2019-05-09T12:59:15.189Z,89.30
2019-05-09T13:03:21.880Z,89.25
2019-05-09T13:07:29.768Z,88.04
2019-05-09T13:11:38.673Z,88.75
2019-05-09T13:15:52.617Z,84.08
2019-05-09T13:19:59.433Z,83.72
2019-05-09T13:24:08.427Z,85.36
2019-05-09T13:28:14.534Z,87.47
2019-05-09T13:32:23.210Z,88.04
2019-05-09T13:36:29.665Z,88.76
2019-05-09T13:40:36.571Z,89.21
2019-05-09T13:44:43.326Z,90.61
2019-05-09T13:49:06.509Z,91.42
2019-05-09T13:52:58.676Z,93.20
2019-05-09T13:57:05.603Z,94.59
2019-05-09T14:01:12.975Z,94.71
2019-05-09T14:05:19.853Z,94.33
2019-05-09T14:09:29.201Z,95.56
2019-05-09T14:13:38.306Z,95.22
2019-05-09T14:17:49.520Z,96.07
2019-05-09T14:21:52.727Z,97.83
2019-05-09T14:25:59.487Z,98.66
2019-05-09T14:30:08.145Z,99.05
2019-05-09T14:34:15.167Z,99.79
2019-05-09T14:38:21.896Z,100.00
2019-05-09T14:42:29.125Z,100.00
2019-05-09T14:46:39.214Z,100.00
2019-05-09T14:50:45.647Z,100.00
2019-05-09T14:54:52.337Z,100.00
2019-05-09T14:58:59.081Z,100.00
2019-05-09T15:03:07.762Z,100.00
2019-05-09T15:07:14.811Z,100.00
2019-05-09T15:11:23.658Z,100.00
2019-05-09T15:15:32.705Z,100.00
2019-05-09T15:19:38.986Z,99.66
2019-05-09T15:23:47.992Z,100.00
2019-05-09T15:27:54.413Z,99.75
2019-05-09T15:32:05.235Z,99.03
2019-05-09T15:36:09.554Z,98.23
2019-05-09T15:40:17.702Z,96.55
2019-05-09T15:44:24.726Z,98.73
2019-05-09T15:48:31.475Z,97.07
2019-05-09T15:52:39.131Z,92.37
2019-05-09T15:56:48.374Z,94.54
2019-05-09T16:00:54.383Z,91.98
2019-05-09T16:05:01.145Z,91.42
2019-05-09T16:09:11.937Z,92.05
2019-05-09T16:13:17.703Z,91.99
2019-05-09T16:17:24.761Z,92.60
2019-05-09T16:21:31.509Z,93.40
2019-05-09T16:25:38.805Z,92.02
2019-05-09T16:29:45.632Z,92.31
2019-05-09T16:33:52.476Z,92.38
2019-05-09T16:38:06.312Z,92.21
2019-05-09T16:42:08.277Z,90.74
2019-05-09T16:46:15.039Z,91.97
2019-05-09T16:50:23.048Z,91.96
2019-05-09T16:54:34.334Z,91.71
2019-05-09T16:58:41.031Z,91.76
2019-05-09T17:02:48.838Z,90.01
2019-05-09T17:06:57.630Z,90.35
2019-05-09T17:11:07.721Z,90.18
2019-05-09T17:15:18.899Z,90.47
2019-05-09T17:19:28.095Z,91.55
2019-05-09T17:23:34.080Z,91.02
2019-05-09T17:27:40.794Z,91.51
2019-05-09T17:31:48.789Z,91.86
2019-05-09T17:35:57.785Z,91.83
2019-05-09T17:40:04.833Z,90.88
2019-05-09T17:44:11.789Z,90.77
2019-05-09T17:48:18.649Z,90.49
2019-05-09T17:52:25.511Z,89.75
2019-05-09T17:56:32.425Z,89.45
2019-05-09T18:00:39.575Z,90.35
2019-05-09T18:04:48.040Z,92.39
2019-05-09T18:08:57.489Z,90.25
2019-05-09T18:13:03.549Z,90.98
2019-05-09T18:17:12.756Z,91.06
2019-05-09T18:21:19.537Z,90.24
2019-05-09T18:25:26.932Z,91.61
2019-05-09T18:29:33.701Z,91.41
2019-05-09T18:33:54.438Z,91.61
2019-05-09T18:38:01.603Z,90.81
2019-05-09T18:42:08.779Z,91.59
2019-05-09T18:46:17.905Z,92.41
2019-05-09T18:50:24.319Z,93.20
2019-05-09T18:54:31.056Z,91.08
2019-05-09T18:58:37.809Z,92.72
2019-05-09T19:02:46.336Z,91.64
2019-05-09T19:06:53.200Z,91.10
2019-05-09T19:10:59.951Z,90.33
2019-05-09T19:15:08.999Z,90.15
2019-05-09T19:19:47.014Z,90.14
2019-05-09T19:24:02.583Z,89.38
2019-05-09T19:28:09.289Z,88.33
2019-05-09T19:32:16.712Z,88.79
2019-05-09T19:36:23.425Z,88.14
2019-05-09T19:40:30.206Z,88.57
2019-05-09T19:44:39.202Z,88.50
2019-05-09T19:48:46.220Z,88.12
2019-05-09T19:52:52.917Z,88.09
2019-05-09T19:56:59.676Z,88.49
2019-05-09T20:01:06.667Z,88.64
2019-05-09T20:05:14.617Z,89.95
2019-05-09T20:09:40.215Z,90.80
2019-05-09T20:14:21.027Z,90.08
2019-05-09T20:18:27.784Z,90.55
2019-05-09T20:22:34.519Z,90.57
2019-05-09T20:26:41.373Z,91.20
2019-05-09T20:30:48.352Z,92.13
2019-05-09T20:34:55.134Z,92.41
2019-05-09T20:39:02.224Z,92.05
2019-05-09T20:43:10.358Z,91.35
2019-05-09T20:47:17.573Z,91.19
2019-05-09T20:51:26.353Z,91.57
2019-05-09T20:55:33.359Z,91.76
2019-05-09T20:59:40.402Z,91.31
2019-05-09T21:03:59.675Z,91.54
2019-05-09T21:07:56.368Z,91.48
2019-05-09T21:12:03.210Z,91.79
2019-05-09T21:16:10.166Z,92.80
2019-05-09T21:20:17.258Z,93.57
2019-05-09T21:24:24.226Z,93.56
2019-05-09T21:28:31.146Z,92.47
2019-05-09T21:32:38.086Z,93.45
2019-05-09T21:36:44.829Z,93.18
2019-05-09T21:40:51.725Z,93.10
2019-05-09T21:44:58.518Z,93.11
2019-05-09T21:49:05.408Z,93.03
2019-05-09T21:53:12.416Z,92.95
2019-05-09T21:57:19.161Z,92.99
2019-05-09T22:01:26.513Z,92.67
2019-05-09T22:05:33.457Z,92.71
2019-05-09T22:09:40.231Z,92.25
2019-05-09T22:13:47.151Z,92.83
2019-05-09T22:17:53.937Z,93.31
2019-05-09T22:22:00.777Z,93.24
2019-05-09T22:26:07.770Z,93.44
2019-05-09T22:30:16.115Z,93.27
2019-05-09T22:34:23.027Z,92.16
2019-05-09T22:38:29.841Z,91.62
2019-05-09T22:42:36.729Z,91.54
2019-05-09T22:46:43.549Z,90.61
2019-05-09T22:50:50.273Z,90.69
2019-05-09T22:54:57.176Z,90.55
2019-05-09T22:59:04.061Z,91.13
2019-05-09T23:03:10.810Z,90.99
2019-05-09T23:07:18.822Z,90.84
2019-05-09T23:11:25.861Z,90.79
2019-05-09T23:15:32.987Z,90.64
2019-05-09T23:19:39.779Z,90.40
2019-05-09T23:23:59.060Z,90.33
2019-05-09T23:28:05.976Z,90.58
2019-05-09T23:32:35.401Z,89.50
2019-05-09T23:36:42.185Z,90.35
2019-05-09T23:40:48.972Z,89.25
2019-05-09T23:44:55.837Z,89.75
2019-05-09T23:49:02.566Z,90.06
2019-05-09T23:53:10.390Z,89.34
2019-05-09T23:57:35.352Z,89.95
